createdAt,value
2023-04-20T00:00:52.765Z,36.08
2023-04-20T00:01:52.784Z,36.02
2023-04-20T00:02:52.832Z,35.92
2023-04-20T00:03:52.976Z,35.87
2023-04-20T00:04:52.780Z,35.80
2023-04-20T00:05:52.710Z,35.74
2023-04-20T00:06:52.701Z,35.65
2023-04-20T00:07:52.684Z,35.61
2023-04-20T00:08:52.680Z,35.57
2023-04-20T00:09:52.673Z,35.52
2023-04-20T00:10:52.704Z,35.45
2023-04-20T00:11:52.663Z,35.40
2023-04-20T00:12:52.689Z,35.39
2023-04-20T00:13:52.632Z,35.33
2023-04-20T00:14:52.627Z,35.31
2023-04-20T00:15:52.624Z,35.28
2023-04-20T00:16:52.706Z,35.28
2023-04-20T00:17:52.726Z,35.24
2023-04-20T00:18:52.631Z,35.19
2023-04-20T00:19:52.611Z,35.18
2023-04-20T00:20:52.602Z,35.14
2023-04-20T00:21:52.590Z,35.16
2023-04-20T00:22:52.570Z,35.14
2023-04-20T00:23:52.595Z,35.13
2023-04-20T00:24:52.573Z,35.09
2023-04-20T00:25:52.579Z,35.05
2023-04-20T00:26:52.651Z,35.04
2023-04-20T00:27:52.565Z,35.01
2023-04-20T00:28:52.558Z,35.01
2023-04-20T00:29:52.549Z,34.99
2023-04-20T00:30:52.614Z,34.97
2023-04-20T00:31:52.538Z,34.96
2023-04-20T00:32:52.573Z,34.93
2023-04-20T00:33:52.530Z,34.89
2023-04-20T00:34:52.514Z,34.89
2023-04-20T00:35:52.509Z,34.88
2023-04-20T00:36:52.522Z,34.90
2023-04-20T00:37:52.525Z,34.85
2023-04-20T00:38:52.534Z,34.87
2023-04-20T00:39:52.540Z,34.83
2023-04-20T00:40:52.535Z,34.82
2023-04-20T00:41:52.549Z,34.82
2023-04-20T00:42:52.570Z,34.81
2023-04-20T00:43:52.547Z,34.83
2023-04-20T00:44:52.552Z,34.80
2023-04-20T00:45:52.596Z,34.79
2023-04-20T00:46:52.571Z,34.80
2023-04-20T00:47:52.624Z,34.76
2023-04-20T00:48:52.584Z,34.79
2023-04-20T00:49:52.638Z,34.78
2023-04-20T00:50:52.579Z,34.78
2023-04-20T00:51:52.582Z,34.75
2023-04-20T00:52:52.589Z,34.69
2023-04-20T00:53:52.597Z,34.70
2023-04-20T00:54:52.596Z,34.69
2023-04-20T00:55:52.596Z,34.72
2023-04-20T00:56:52.620Z,34.70
2023-04-20T00:57:52.618Z,34.73
2023-04-20T00:58:52.704Z,34.72
2023-04-20T00:59:52.639Z,34.71
2023-04-20T01:00:52.626Z,34.73
2023-04-20T01:01:52.721Z,34.68
2023-04-20T01:02:52.809Z,34.68
2023-04-20T01:03:52.823Z,34.68
2023-04-20T01:04:52.657Z,34.68
2023-04-20T01:05:52.682Z,34.71
2023-04-20T01:06:52.671Z,34.69
2023-04-20T01:07:52.681Z,34.66
2023-04-20T01:08:52.730Z,34.70
2023-04-20T01:09:52.697Z,34.68
2023-04-20T01:10:52.710Z,34.71
2023-04-20T01:11:52.752Z,34.69
2023-04-20T01:12:52.726Z,34.71
2023-04-20T01:13:52.740Z,34.68
2023-04-20T01:14:52.763Z,34.67
2023-04-20T01:15:52.752Z,34.68
2023-04-20T01:16:52.749Z,34.68
2023-04-20T01:17:52.849Z,34.68
2023-04-20T01:18:52.767Z,34.65
2023-04-20T01:19:52.775Z,34.67
2023-04-20T01:20:52.773Z,34.68
2023-04-20T01:21:52.781Z,34.68
2023-04-20T01:22:52.778Z,34.67
2023-04-20T01:23:52.792Z,34.65
2023-04-20T01:24:52.821Z,34.64
2023-04-20T01:25:52.792Z,34.61
2023-04-20T01:26:52.798Z,34.61
2023-04-20T01:27:52.800Z,34.58
2023-04-20T01:28:53.093Z,34.58
2023-04-20T01:29:52.813Z,34.60
2023-04-20T01:30:52.826Z,34.57
2023-04-20T01:31:52.821Z,34.58
2023-04-20T01:32:52.955Z,34.59
2023-04-20T01:33:52.830Z,34.61
2023-04-20T01:34:52.845Z,34.57
2023-04-20T01:35:52.850Z,34.58
2023-04-20T01:36:52.834Z,34.60
2023-04-20T01:37:52.839Z,34.59
2023-04-20T01:38:52.845Z,34.58
2023-04-20T01:39:52.929Z,34.59
2023-04-20T01:40:52.850Z,34.59
2023-04-20T01:41:52.845Z,34.57
2023-04-20T01:42:52.852Z,34.56
2023-04-20T01:43:52.868Z,34.55
2023-04-20T01:44:52.861Z,34.55
2023-04-20T01:45:52.876Z,34.56
2023-04-20T01:46:52.935Z,34.56
2023-04-20T01:47:52.875Z,34.52
2023-04-20T01:48:52.869Z,34.51
2023-04-20T01:49:52.876Z,34.51
2023-04-20T01:50:52.900Z,34.49
2023-04-20T01:51:52.887Z,34.47
2023-04-20T01:52:52.884Z,34.46
2023-04-20T01:53:52.890Z,34.45
2023-04-20T01:54:52.893Z,34.45
2023-04-20T01:55:52.896Z,34.43
2023-04-20T01:56:52.892Z,34.45
2023-04-20T01:57:52.904Z,34.43
2023-04-20T01:58:52.888Z,34.43
2023-04-20T01:59:52.886Z,34.42
2023-04-20T02:00:52.937Z,34.43
2023-04-20T02:01:52.920Z,34.43
2023-04-20T02:02:53.178Z,34.43
2023-04-20T02:03:53.168Z,34.42
2023-04-20T02:04:52.915Z,34.42
2023-04-20T02:05:52.912Z,34.40
2023-04-20T02:06:52.912Z,34.40
2023-04-20T02:07:52.927Z,34.40
2023-04-20T02:08:52.923Z,34.40
2023-04-20T02:09:52.924Z,34.43
2023-04-20T02:10:52.930Z,34.42
2023-04-20T02:11:52.928Z,34.42
2023-04-20T02:12:52.936Z,34.42
2023-04-20T02:13:52.944Z,34.42
2023-04-20T02:14:52.941Z,34.42
2023-04-20T02:15:52.953Z,34.42
2023-04-20T02:16:53.009Z,34.41
2023-04-20T02:17:53.150Z,34.43
2023-04-20T02:18:52.980Z,34.41
2023-04-20T02:19:52.950Z,34.40
2023-04-20T02:20:52.949Z,34.39
2023-04-20T02:21:52.952Z,34.42
2023-04-20T02:22:52.947Z,34.41
2023-04-20T02:23:52.949Z,34.39
2023-04-20T02:24:52.948Z,34.38
2023-04-20T02:25:52.937Z,34.38
2023-04-20T02:26:52.954Z,34.38
2023-04-20T02:27:52.934Z,34.37
2023-04-20T02:28:52.950Z,34.38
2023-04-20T02:29:52.944Z,34.35
2023-04-20T02:30:52.967Z,34.35
2023-04-20T02:31:52.950Z,34.35
2023-04-20T02:32:52.984Z,34.34
2023-04-20T02:33:53.016Z,34.36
2023-04-20T02:34:52.970Z,34.36
2023-04-20T02:35:52.971Z,34.34
2023-04-20T02:36:52.936Z,34.34
2023-04-20T02:37:52.954Z,34.36
2023-04-20T02:38:52.935Z,34.34
2023-04-20T02:39:52.925Z,34.34
2023-04-20T02:40:52.928Z,34.34
2023-04-20T02:41:52.935Z,34.35
2023-04-20T02:42:52.928Z,34.33
2023-04-20T02:43:52.936Z,34.33
2023-04-20T02:44:52.996Z,34.34
2023-04-20T02:45:52.928Z,34.35
2023-04-20T02:46:53.006Z,34.34
2023-04-20T02:47:52.983Z,34.34
2023-04-20T02:48:52.950Z,34.35
2023-04-20T02:49:52.947Z,34.36
2023-04-20T02:50:52.961Z,34.36
2023-04-20T02:51:52.949Z,34.35
2023-04-20T02:52:52.962Z,34.36
2023-04-20T02:53:52.934Z,34.35
2023-04-20T02:54:52.934Z,34.36
2023-04-20T02:55:52.952Z,34.35
2023-04-20T02:56:52.942Z,34.34
2023-04-20T02:57:52.943Z,34.33
2023-04-20T02:58:52.945Z,34.33
2023-04-20T02:59:52.949Z,34.33
2023-04-20T03:00:52.957Z,34.34
2023-04-20T03:01:52.980Z,34.34
2023-04-20T03:02:53.071Z,34.34
2023-04-20T03:03:53.116Z,34.31
2023-04-20T03:04:53.167Z,34.34
2023-04-20T03:05:52.948Z,34.35
2023-04-20T03:06:53.045Z,34.31
2023-04-20T03:07:52.966Z,34.33
2023-04-20T03:08:52.959Z,34.31
2023-04-20T03:09:52.964Z,34.30
2023-04-20T03:10:52.952Z,34.29
2023-04-20T03:11:52.964Z,34.30
2023-04-20T03:12:52.970Z,34.30
2023-04-20T03:13:52.960Z,34.30
2023-04-20T03:14:52.954Z,34.30
2023-04-20T03:15:52.964Z,34.30
2023-04-20T03:16:53.097Z,34.31
2023-04-20T03:17:53.007Z,34.30
2023-04-20T03:18:52.969Z,34.32
2023-04-20T03:19:52.957Z,34.31
2023-04-20T03:20:52.954Z,34.31
2023-04-20T03:21:52.957Z,34.29
2023-04-20T03:22:52.977Z,34.30
2023-04-20T03:23:52.954Z,34.30
2023-04-20T03:24:53.733Z,34.29
2023-04-20T03:25:52.957Z,34.29
2023-04-20T03:26:52.940Z,34.29
2023-04-20T03:27:52.941Z,34.29
2023-04-20T03:28:52.949Z,34.25
2023-04-20T03:29:52.934Z,34.28
2023-04-20T03:30:52.929Z,34.28
2023-04-20T03:31:53.000Z,34.30
2023-04-20T03:32:53.005Z,34.26
2023-04-20T03:33:52.919Z,34.27
2023-04-20T03:34:52.897Z,34.25
2023-04-20T03:35:52.896Z,34.27
2023-04-20T03:36:52.878Z,34.26
2023-04-20T03:37:52.881Z,34.25
2023-04-20T03:38:52.900Z,34.24
2023-04-20T03:39:52.862Z,34.24
2023-04-20T03:40:52.853Z,34.24
2023-04-20T03:41:52.846Z,34.22
2023-04-20T03:42:52.833Z,34.20
2023-04-20T03:43:52.827Z,34.21
2023-04-20T03:44:52.826Z,34.19
2023-04-20T03:45:52.851Z,34.19
2023-04-20T03:46:52.807Z,34.17
2023-04-20T03:47:52.845Z,34.16
2023-04-20T03:48:52.791Z,34.18
2023-04-20T03:49:52.786Z,34.14
2023-04-20T03:50:52.781Z,34.13
2023-04-20T03:51:52.765Z,34.13
2023-04-20T03:52:52.762Z,34.11
2023-04-20T03:53:52.756Z,34.13
2023-04-20T03:54:52.790Z,34.13
2023-04-20T03:55:52.771Z,34.10
2023-04-20T03:56:52.780Z,34.11
2023-04-20T03:57:52.789Z,34.09
2023-04-20T03:58:52.775Z,34.08
2023-04-20T03:59:52.783Z,34.07
2023-04-20T04:00:52.781Z,34.09
2023-04-20T04:01:52.837Z,34.05
2023-04-20T04:02:52.925Z,34.05
2023-04-20T04:03:52.958Z,34.05
2023-04-20T04:04:52.883Z,34.05
2023-04-20T04:05:52.802Z,34.04
2023-04-20T04:06:52.807Z,34.04
2023-04-20T04:07:52.837Z,34.03
2023-04-20T04:08:52.851Z,34.03
2023-04-20T04:09:52.878Z,34.00
2023-04-20T04:10:52.929Z,34.01
2023-04-20T04:11:52.951Z,33.99
2023-04-20T04:12:52.953Z,34.00
2023-04-20T04:13:53.028Z,33.97
2023-04-20T04:14:53.043Z,33.97
2023-04-20T04:15:53.074Z,33.97
2023-04-20T04:16:53.117Z,33.97
2023-04-20T04:17:53.173Z,33.94
2023-04-20T04:18:53.201Z,33.94
2023-04-20T04:19:53.274Z,33.94
2023-04-20T04:20:53.325Z,33.94
2023-04-20T04:21:53.360Z,33.94
2023-04-20T04:22:53.437Z,33.96
2023-04-20T04:23:53.494Z,33.93
2023-04-20T04:24:53.567Z,33.93
2023-04-20T04:25:53.637Z,33.93
2023-04-20T04:26:53.729Z,33.93
2023-04-20T04:27:53.780Z,33.91
2023-04-20T04:28:53.834Z,33.89
2023-04-20T04:29:53.891Z,33.88
2023-04-20T04:30:53.952Z,33.90
2023-04-20T04:31:54.186Z,33.85
2023-04-20T04:32:54.117Z,33.90
2023-04-20T04:33:54.138Z,33.86
2023-04-20T04:34:54.198Z,33.87
2023-04-20T04:35:54.302Z,33.88
2023-04-20T04:36:54.315Z,33.86
2023-04-20T04:37:54.383Z,33.87
2023-04-20T04:38:54.439Z,33.85
2023-04-20T04:39:54.501Z,33.86
2023-04-20T04:40:54.588Z,33.86
2023-04-20T04:41:54.629Z,33.85
2023-04-20T04:42:54.699Z,33.84
2023-04-20T04:43:54.734Z,33.84
2023-04-20T04:44:54.795Z,33.84
2023-04-20T04:45:54.915Z,33.85
2023-04-20T04:46:54.919Z,33.82
2023-04-20T04:47:55.027Z,33.84
2023-04-20T04:48:55.070Z,33.82
2023-04-20T04:49:55.113Z,33.80
2023-04-20T04:50:55.174Z,33.80
2023-04-20T04:51:55.226Z,33.81
2023-04-20T04:52:55.280Z,33.80
2023-04-20T04:53:55.332Z,33.79
2023-04-20T04:54:55.383Z,33.80
2023-04-20T04:55:55.441Z,33.80
2023-04-20T04:56:55.497Z,33.82
2023-04-20T04:57:55.547Z,33.79
2023-04-20T04:58:55.626Z,33.79
2023-04-20T04:59:55.664Z,33.80
2023-04-20T05:00:55.708Z,33.80
2023-04-20T05:01:55.845Z,33.79
2023-04-20T05:02:56.015Z,33.79
2023-04-20T05:03:55.990Z,33.78
2023-04-20T05:04:56.013Z,33.78
2023-04-20T05:05:55.987Z,33.78
2023-04-20T05:06:56.057Z,33.76
2023-04-20T05:07:56.092Z,33.77
2023-04-20T05:08:56.154Z,33.77
2023-04-20T05:09:56.205Z,33.30
2023-04-20T05:10:56.266Z,33.36
2023-04-20T05:11:56.325Z,33.52
2023-04-20T05:12:56.379Z,33.23
2023-04-20T05:13:56.662Z,33.02
2023-04-20T05:14:56.547Z,33.04
2023-04-20T05:15:56.621Z,32.93
2023-04-20T05:16:56.623Z,32.79
2023-04-20T05:17:56.699Z,32.76
2023-04-20T05:18:56.739Z,32.77
2023-04-20T05:19:56.793Z,32.95
2023-04-20T05:20:56.853Z,33.05
2023-04-20T05:21:56.916Z,33.34
2023-04-20T05:22:56.974Z,33.30
2023-04-20T05:23:57.170Z,33.31
2023-04-20T05:24:57.079Z,33.39
2023-04-20T05:25:57.132Z,33.42
2023-04-20T05:26:57.201Z,33.41
2023-04-20T05:27:57.277Z,33.41
2023-04-20T05:28:57.319Z,33.37
2023-04-20T05:30:06.351Z,33.41
2023-04-20T05:30:57.404Z,33.45
2023-04-20T05:31:57.391Z,33.42
2023-04-20T05:32:57.383Z,33.41
2023-04-20T05:33:57.672Z,33.40
2023-04-20T05:34:57.333Z,33.41
2023-04-20T05:35:57.684Z,33.38
2023-04-20T05:36:57.312Z,33.40
2023-04-20T05:37:57.306Z,33.35
2023-04-20T05:38:57.294Z,33.35
2023-04-20T05:39:57.280Z,33.33
2023-04-20T05:40:57.270Z,33.32
2023-04-20T05:41:58.178Z,33.30
2023-04-20T05:42:57.256Z,33.29
2023-04-20T05:43:57.248Z,33.30
2023-04-20T05:44:57.225Z,33.35
2023-04-20T05:45:57.260Z,33.33
2023-04-20T05:46:57.708Z,33.29
2023-04-20T05:47:57.266Z,33.29
2023-04-20T05:48:57.678Z,33.28
2023-04-20T05:49:57.164Z,33.27
2023-04-20T05:50:57.208Z,33.24
2023-04-20T05:51:57.260Z,33.23
2023-04-20T05:52:57.320Z,33.19
2023-04-20T05:53:57.694Z,33.19
2023-04-20T05:54:57.418Z,33.16
2023-04-20T05:55:57.495Z,33.15
2023-04-20T05:56:58.537Z,33.16
2023-04-20T05:57:57.589Z,33.18
2023-04-20T05:58:58.200Z,33.15
2023-04-20T05:59:58.734Z,33.13
2023-04-20T06:00:57.751Z,33.14
2023-04-20T06:01:57.885Z,33.11
2023-04-20T06:02:58.444Z,33.11
2023-04-20T06:03:59.444Z,33.06
2023-04-20T06:04:58.324Z,33.04
2023-04-20T06:05:57.954Z,33.10
2023-04-20T06:06:57.940Z,33.09
2023-04-20T06:07:58.039Z,33.07
2023-04-20T06:09:05.655Z,33.08
2023-04-20T06:09:57.899Z,33.07
2023-04-20T06:10:58.025Z,33.06
2023-04-20T06:11:57.898Z,33.03
2023-04-20T06:12:57.867Z,33.04
2023-04-20T06:13:58.192Z,33.03
2023-04-20T06:14:58.866Z,33.04
2023-04-20T06:15:58.265Z,33.05
2023-04-20T06:16:57.837Z,33.03
2023-04-20T06:17:57.834Z,33.04
2023-04-20T06:18:58.266Z,33.06
2023-04-20T06:19:57.840Z,33.04
2023-04-20T06:20:57.807Z,33.03
2023-04-20T06:22:00.213Z,33.07
2023-04-20T06:22:57.774Z,33.06
2023-04-20T06:23:59.335Z,33.05
2023-04-20T06:24:59.040Z,33.02
2023-04-20T06:25:58.078Z,33.04
2023-04-20T06:26:58.092Z,33.06
2023-04-20T06:27:58.155Z,33.05
2023-04-20T06:28:58.240Z,33.02
2023-04-20T06:29:58.264Z,33.01
2023-04-20T06:30:58.318Z,33.01
2023-04-20T06:31:58.730Z,33.03
2023-04-20T06:32:58.473Z,33.00
2023-04-20T06:33:58.737Z,33.01
2023-04-20T06:34:58.614Z,33.01
2023-04-20T06:35:58.565Z,33.03
2023-04-20T06:36:58.766Z,33.03
2023-04-20T06:37:58.611Z,33.04
2023-04-20T06:38:58.677Z,33.02
2023-04-20T06:39:58.726Z,33.04
2023-04-20T06:40:58.787Z,33.05
2023-04-20T06:41:59.228Z,33.06
2023-04-20T06:42:58.840Z,33.06
2023-04-20T06:43:59.237Z,33.05
2023-04-20T06:44:59.221Z,33.04
2023-04-20T06:45:58.849Z,33.05
2023-04-20T06:47:02.118Z,33.05
2023-04-20T06:47:58.881Z,33.05
2023-04-20T06:49:31.103Z,33.06
2023-04-20T06:50:00.137Z,33.06
2023-04-20T06:50:58.840Z,33.04
2023-04-20T06:51:58.810Z,33.01
2023-04-20T06:53:06.206Z,33.03
2023-04-20T06:53:59.256Z,33.03
2023-04-20T06:54:59.007Z,33.04
2023-04-20T06:55:58.770Z,33.02
2023-04-20T06:56:58.732Z,33.05
2023-04-20T06:57:58.728Z,33.03
2023-04-20T06:58:59.731Z,33.02
2023-04-20T06:59:58.831Z,33.04
2023-04-20T07:00:58.671Z,33.09
2023-04-20T07:01:58.848Z,33.11
2023-04-20T07:02:58.736Z,33.12
2023-04-20T07:03:58.780Z,33.05
2023-04-20T07:04:58.638Z,33.08
2023-04-20T07:05:58.609Z,33.09
2023-04-20T07:07:06.345Z,33.08
2023-04-20T07:07:58.566Z,33.11
2023-04-20T07:09:01.915Z,33.09
2023-04-20T07:09:58.531Z,33.14
2023-04-20T07:11:00.168Z,33.13
2023-04-20T07:11:58.737Z,33.12
2023-04-20T07:12:58.812Z,33.08
2023-04-20T07:13:59.295Z,33.10
2023-04-20T07:14:58.877Z,33.10
2023-04-20T07:15:58.912Z,33.11
2023-04-20T07:16:59.236Z,33.08
2023-04-20T07:17:58.945Z,33.10
2023-04-20T07:18:59.248Z,33.08
2023-04-20T07:19:59.247Z,33.07
2023-04-20T07:20:58.908Z,33.09
2023-04-20T07:21:58.935Z,33.08
2023-04-20T07:22:59.273Z,33.09
2023-04-20T07:23:59.243Z,33.09
2023-04-20T07:24:58.996Z,33.10
2023-04-20T07:25:59.004Z,33.12
2023-04-20T07:27:00.241Z,33.13
2023-04-20T07:27:59.028Z,33.07
2023-04-20T07:28:59.070Z,33.05
2023-04-20T07:29:59.086Z,33.12
2023-04-20T07:30:59.112Z,33.12
2023-04-20T07:31:59.357Z,33.08
2023-04-20T07:32:59.245Z,33.07
2023-04-20T07:33:59.239Z,33.05
2023-04-20T07:34:59.206Z,33.09
2023-04-20T07:35:59.209Z,33.08
2023-04-20T07:36:59.232Z,33.09
2023-04-20T07:37:59.280Z,33.07
2023-04-20T07:38:59.816Z,33.06
2023-04-20T07:39:59.326Z,33.07
2023-04-20T07:40:59.340Z,33.08
2023-04-20T07:41:59.363Z,33.07
2023-04-20T07:42:59.879Z,33.06
2023-04-20T07:43:59.422Z,33.04
2023-04-20T07:44:59.506Z,33.06
2023-04-20T07:45:59.503Z,33.04
2023-04-20T07:46:59.486Z,33.04
2023-04-20T07:47:59.795Z,33.02
2023-04-20T07:48:59.531Z,33.02
2023-04-20T07:49:59.555Z,33.03
2023-04-20T07:50:59.586Z,33.04
2023-04-20T07:52:12.962Z,33.03
2023-04-20T07:52:59.755Z,33.05
2023-04-20T07:53:59.759Z,33.06
2023-04-20T07:54:59.751Z,33.07
2023-04-20T07:55:59.595Z,33.06
2023-04-20T07:56:59.567Z,33.06
2023-04-20T07:57:59.791Z,33.07
2023-04-20T07:58:59.726Z,33.08
2023-04-20T07:59:59.515Z,33.06
2023-04-20T08:00:59.729Z,33.11
2023-04-20T08:01:59.578Z,33.13
2023-04-20T08:02:59.648Z,33.13
2023-04-20T08:03:59.994Z,33.11
2023-04-20T08:04:59.840Z,33.11
2023-04-20T08:05:59.767Z,33.11
2023-04-20T08:07:00.459Z,33.12
2023-04-20T08:07:59.729Z,33.13
2023-04-20T08:09:06.842Z,33.15
2023-04-20T08:09:59.447Z,33.14
2023-04-20T08:10:59.810Z,33.17
2023-04-20T08:11:59.439Z,33.16
2023-04-20T08:12:59.432Z,33.18
2023-04-20T08:14:00.360Z,33.18
2023-04-20T08:15:01.378Z,33.20
2023-04-20T08:15:59.829Z,33.19
2023-04-20T08:16:59.398Z,33.13
2023-04-20T08:17:59.428Z,33.13
2023-04-20T08:18:59.750Z,33.17
2023-04-20T08:19:59.373Z,33.14
2023-04-20T08:20:59.375Z,33.15
2023-04-20T08:22:00.654Z,33.13
2023-04-20T08:22:59.552Z,33.12
2023-04-20T08:23:59.731Z,33.06
2023-04-20T08:24:59.333Z,33.11
2023-04-20T08:25:59.328Z,33.10
2023-04-20T08:26:59.482Z,33.14
2023-04-20T08:27:59.559Z,33.14
2023-04-20T08:28:59.734Z,33.13
2023-04-20T08:29:59.301Z,33.12
2023-04-20T08:30:59.331Z,33.11
2023-04-20T08:31:59.488Z,33.10
2023-04-20T08:32:59.324Z,33.14
2023-04-20T08:33:59.733Z,33.14
2023-04-20T08:34:59.249Z,33.13
2023-04-20T08:35:59.258Z,33.15
2023-04-20T08:36:59.238Z,33.16
2023-04-20T08:37:59.231Z,33.14
2023-04-20T08:38:59.245Z,33.12
2023-04-20T08:39:59.216Z,33.09
2023-04-20T08:40:59.222Z,33.12
2023-04-20T08:41:59.212Z,33.12
2023-04-20T08:42:59.375Z,33.13
2023-04-20T08:44:00.235Z,33.13
2023-04-20T08:44:59.218Z,33.13
2023-04-20T08:45:59.204Z,33.14
2023-04-20T08:46:59.307Z,33.16
2023-04-20T08:47:59.294Z,33.15
2023-04-20T08:48:59.149Z,33.22
2023-04-20T08:49:59.137Z,33.23
2023-04-20T08:50:59.148Z,33.20
2023-04-20T08:51:59.158Z,33.17
2023-04-20T08:52:59.270Z,33.19
2023-04-20T08:53:59.257Z,33.15
2023-04-20T08:54:59.262Z,33.17
2023-04-20T08:55:59.284Z,33.16
2023-04-20T08:56:59.311Z,33.14
2023-04-20T08:57:59.355Z,33.14
2023-04-20T08:58:59.893Z,33.13
2023-04-20T08:59:59.746Z,33.15
2023-04-20T09:00:59.456Z,33.15
2023-04-20T09:01:59.569Z,33.14
2023-04-20T09:02:59.667Z,33.13
2023-04-20T09:03:59.678Z,33.15
2023-04-20T09:04:59.771Z,33.17
2023-04-20T09:05:59.638Z,33.19
2023-04-20T09:06:59.661Z,33.13
2023-04-20T09:07:59.694Z,33.13
2023-04-20T09:08:59.728Z,33.07
2023-04-20T09:10:00.293Z,33.05
2023-04-20T09:10:59.999Z,33.07
2023-04-20T09:11:59.843Z,33.11
2023-04-20T09:12:59.885Z,33.07
2023-04-20T09:14:00.275Z,33.04
2023-04-20T09:15:00.325Z,33.01
2023-04-20T09:16:00.021Z,33.03
2023-04-20T09:17:00.034Z,33.02
2023-04-20T09:18:00.138Z,33.04
2023-04-20T09:19:00.113Z,33.02
2023-04-20T09:20:00.268Z,33.05
2023-04-20T09:21:00.200Z,33.05
2023-04-20T09:22:00.273Z,33.06
2023-04-20T09:23:00.245Z,33.10
2023-04-20T09:24:00.285Z,33.13
2023-04-20T09:25:00.755Z,33.56
2023-04-20T09:26:00.352Z,33.67
2023-04-20T09:27:00.373Z,34.09
2023-04-20T09:28:00.401Z,34.13
2023-04-20T09:29:00.428Z,33.99
2023-04-20T09:30:00.756Z,33.94
2023-04-20T09:31:00.557Z,34.00
2023-04-20T09:32:00.519Z,33.97
2023-04-20T09:33:00.580Z,33.93
2023-04-20T09:34:00.754Z,33.74
2023-04-20T09:35:00.759Z,33.70
2023-04-20T09:36:00.606Z,33.70
2023-04-20T09:37:00.621Z,33.62
2023-04-20T09:38:00.652Z,33.57
2023-04-20T09:39:08.213Z,33.64
2023-04-20T09:40:00.853Z,33.60
2023-04-20T09:41:00.840Z,33.54
2023-04-20T09:42:02.018Z,33.56
2023-04-20T09:43:01.065Z,33.64
2023-04-20T09:44:01.003Z,33.54
2023-04-20T09:45:00.896Z,33.46
2023-04-20T09:46:00.919Z,33.51
2023-04-20T09:47:01.154Z,33.55
2023-04-20T09:48:00.880Z,33.53
2023-04-20T09:49:00.726Z,33.55
2023-04-20T09:50:14.047Z,33.51
2023-04-20T09:51:01.665Z,33.50
2023-04-20T09:52:00.790Z,33.50
2023-04-20T09:53:01.433Z,33.45
2023-04-20T09:54:01.565Z,33.39
2023-04-20T09:55:01.752Z,33.43
2023-04-20T09:56:00.727Z,33.42
2023-04-20T09:57:00.755Z,33.47
2023-04-20T09:58:00.783Z,33.41
2023-04-20T09:59:01.096Z,33.44
2023-04-20T10:00:00.941Z,33.44
2023-04-20T10:01:00.703Z,33.40
2023-04-20T10:02:00.757Z,33.38
2023-04-20T10:03:01.212Z,33.43
2023-04-20T10:04:01.034Z,33.43
2023-04-20T10:05:00.930Z,33.40
2023-04-20T10:06:00.751Z,33.44
2023-04-20T10:07:01.296Z,33.40
2023-04-20T10:08:00.759Z,33.44
2023-04-20T10:09:00.802Z,33.43
2023-04-20T10:10:01.262Z,33.42
2023-04-20T10:11:00.887Z,33.36
2023-04-20T10:12:00.932Z,33.44
2023-04-20T10:13:00.968Z,33.42
2023-04-20T10:14:01.001Z,33.40
2023-04-20T10:15:01.329Z,33.41
2023-04-20T10:16:01.116Z,33.39
2023-04-20T10:17:01.415Z,33.39
2023-04-20T10:18:01.239Z,33.39
2023-04-20T10:19:01.305Z,33.35
2023-04-20T10:20:01.265Z,33.44
2023-04-20T10:21:02.313Z,33.40
2023-04-20T10:22:01.360Z,33.40
2023-04-20T10:23:01.401Z,33.42
2023-04-20T10:24:01.450Z,33.40
2023-04-20T10:25:02.138Z,33.41
2023-04-20T10:26:01.541Z,33.45
2023-04-20T10:27:01.597Z,33.40
2023-04-20T10:28:01.642Z,33.45
2023-04-20T10:29:01.663Z,33.41
2023-04-20T10:30:01.772Z,33.39
2023-04-20T10:31:01.810Z,33.42
2023-04-20T10:32:01.813Z,33.48
2023-04-20T10:33:01.888Z,33.46
2023-04-20T10:34:01.891Z,33.44
2023-04-20T10:35:02.109Z,33.41
2023-04-20T10:36:02.292Z,33.46
2023-04-20T10:37:02.009Z,33.44
2023-04-20T10:38:02.053Z,33.42
2023-04-20T10:39:02.097Z,33.39
2023-04-20T10:40:02.283Z,33.41
2023-04-20T10:41:02.183Z,33.45
2023-04-20T10:42:02.512Z,33.39
2023-04-20T10:43:02.721Z,33.41
2023-04-20T10:44:02.853Z,33.33
2023-04-20T10:45:03.166Z,33.33
2023-04-20T10:46:02.976Z,33.33
2023-04-20T10:47:02.471Z,33.32
2023-04-20T10:48:02.588Z,33.39
2023-04-20T10:49:02.554Z,33.37
2023-04-20T10:50:02.794Z,33.38
2023-04-20T10:51:02.717Z,33.31
2023-04-20T10:52:02.679Z,33.35
2023-04-20T10:53:02.724Z,33.43
2023-04-20T10:54:02.781Z,33.46
2023-04-20T10:55:03.283Z,33.44
2023-04-20T10:56:03.037Z,33.36
2023-04-20T10:57:02.924Z,33.44
2023-04-20T10:58:02.979Z,33.52
2023-04-20T10:59:03.017Z,33.45
2023-04-20T11:00:03.282Z,33.41
2023-04-20T11:01:03.110Z,33.46
2023-04-20T11:02:03.214Z,33.45
2023-04-20T11:03:03.315Z,33.43
2023-04-20T11:04:03.359Z,33.46
2023-04-20T11:05:03.856Z,33.51
2023-04-20T11:06:03.368Z,33.49
2023-04-20T11:07:03.483Z,33.53
2023-04-20T11:08:03.484Z,33.47
2023-04-20T11:09:03.528Z,33.59
2023-04-20T11:10:03.791Z,33.65
2023-04-20T11:11:03.598Z,33.61
2023-04-20T11:12:03.624Z,33.56
2023-04-20T11:13:03.659Z,33.49
2023-04-20T11:14:03.688Z,33.55
2023-04-20T11:15:03.785Z,33.57
2023-04-20T11:16:03.803Z,33.57
2023-04-20T11:17:03.825Z,33.53
2023-04-20T11:18:03.831Z,33.60
2023-04-20T11:19:03.848Z,33.67
2023-04-20T11:20:03.800Z,33.68
2023-04-20T11:21:03.790Z,33.66
2023-04-20T11:22:04.305Z,33.74
2023-04-20T11:23:03.878Z,33.80
2023-04-20T11:24:03.837Z,33.81
2023-04-20T11:25:03.855Z,33.73
2023-04-20T11:26:03.878Z,33.75
2023-04-20T11:27:04.972Z,33.69
2023-04-20T11:28:04.026Z,33.68
2023-04-20T11:29:03.926Z,33.72
2023-04-20T11:30:04.050Z,33.86
2023-04-20T11:31:03.998Z,33.91
2023-04-20T11:32:04.492Z,33.89
2023-04-20T11:33:04.182Z,33.90
2023-04-20T11:34:05.997Z,33.97
2023-04-20T11:35:06.897Z,33.96
2023-04-20T11:36:04.056Z,33.94
2023-04-20T11:37:04.301Z,33.87
2023-04-20T11:38:04.023Z,33.95
2023-04-20T11:39:04.036Z,34.03
2023-04-20T11:40:04.018Z,34.07
2023-04-20T11:41:03.995Z,34.02
2023-04-20T11:42:04.034Z,33.98
2023-04-20T11:43:04.018Z,34.03
2023-04-20T11:44:03.983Z,34.11
2023-04-20T11:45:03.991Z,34.12
2023-04-20T11:46:04.039Z,34.06
2023-04-20T11:47:03.991Z,34.07
2023-04-20T11:48:04.040Z,34.15
2023-04-20T11:49:03.944Z,34.19
2023-04-20T11:50:03.950Z,34.17
2023-04-20T11:51:03.922Z,34.16
2023-04-20T11:52:03.931Z,34.09
2023-04-20T11:53:04.308Z,34.22
2023-04-20T11:54:03.904Z,34.29
2023-04-20T11:55:04.012Z,34.24
2023-04-20T11:56:04.305Z,34.19
2023-04-20T11:57:04.896Z,34.16
2023-04-20T11:58:03.890Z,34.18
2023-04-20T11:59:03.878Z,34.23
2023-04-20T12:00:03.871Z,34.21
2023-04-20T12:01:04.302Z,34.22
2023-04-20T12:02:04.259Z,34.23
2023-04-20T12:03:04.112Z,34.24
2023-04-20T12:04:04.065Z,34.18
2023-04-20T12:05:03.948Z,34.18
2023-04-20T12:06:03.910Z,34.26
2023-04-20T12:07:03.919Z,34.24
2023-04-20T12:08:03.888Z,34.26
2023-04-20T12:09:03.903Z,34.22
2023-04-20T12:10:04.307Z,34.39
2023-04-20T12:11:03.909Z,34.38
2023-04-20T12:12:03.853Z,34.34
2023-04-20T12:13:03.847Z,34.29
2023-04-20T12:14:03.885Z,34.29
2023-04-20T12:15:04.315Z,34.36
2023-04-20T12:16:04.359Z,34.32
2023-04-20T12:17:04.026Z,34.28
2023-04-20T12:18:03.911Z,34.27
2023-04-20T12:19:03.902Z,34.30
2023-04-20T12:20:03.875Z,34.30
2023-04-20T12:21:03.856Z,34.17
2023-04-20T12:22:03.876Z,34.17
2023-04-20T12:23:03.911Z,34.20
2023-04-20T12:24:03.905Z,34.23
2023-04-20T12:25:03.928Z,34.19
2023-04-20T12:26:03.934Z,34.19
2023-04-20T12:27:04.020Z,34.19
2023-04-20T12:28:03.990Z,34.17
2023-04-20T12:29:03.980Z,34.17
2023-04-20T12:30:04.012Z,34.19
2023-04-20T12:31:04.062Z,34.17
2023-04-20T12:32:04.112Z,34.10
2023-04-20T12:33:04.654Z,34.15
2023-04-20T12:34:04.069Z,34.26
2023-04-20T12:35:04.313Z,34.31
2023-04-20T12:36:04.102Z,34.35
2023-04-20T12:37:04.321Z,34.34
2023-04-20T12:38:04.137Z,34.32
2023-04-20T12:39:04.180Z,34.31
2023-04-20T12:40:04.160Z,34.34
2023-04-20T12:41:04.175Z,34.36
2023-04-20T12:42:04.221Z,34.36
2023-04-20T12:43:04.533Z,34.34
2023-04-20T12:44:07.125Z,34.33
2023-04-20T12:45:04.237Z,34.35
2023-04-20T12:46:04.250Z,34.31
2023-04-20T12:47:04.297Z,34.34
2023-04-20T12:48:04.304Z,34.33
2023-04-20T12:49:04.248Z,34.43
2023-04-20T12:50:04.232Z,34.45
2023-04-20T12:51:04.341Z,34.42
2023-04-20T12:52:05.722Z,34.37
2023-04-20T12:53:04.243Z,34.32